Time;durP1;ratioP1;P1;durP2;ratioP2;P2;SDS_P1;SDS_P2;PMS_P1;PMS_P2;Temp;Humidity;BMP_temperature;BMP_pressure;BME280_temperature;BME280_humidity;BME280_pressure;Samples;Min_cycle;Max_cycle;Signal;HPM_P1;HPM_P2
2023/07/27 00:03:45;;;;;;;14.25;4.40;;;26.50;62.80;;;;;;6243782;22;20476;-87
2023/07/27 00:06:11;;;;;;;13.43;4.15;;;26.40;62.70;;;;;;6249609;23;20095;-87
2023/07/27 00:08:37;;;;;;;13.38;4.15;;;26.30;62.80;;;;;;6221463;23;20018;-87
2023/07/27 00:11:02;;;;;;;14.73;4.15;;;26.20;62.90;;;;;;6250747;23;19996;-88
2023/07/27 00:13:28;;;;;;;15.00;4.30;;;26.10;63.00;;;;;;6227802;23;20008;-86
2023/07/27 00:15:54;;;;;;;19.67;4.93;;;26.10;63.10;;;;;;6257200;23;20110;-88
2023/07/27 00:18:19;;;;;;;13.82;4.13;;;26.00;63.30;;;;;;6250726;23;19996;-88
2023/07/27 00:20:45;;;;;;;13.98;4.60;;;26.00;63.40;;;;;;6260307;23;20000;-87
2023/07/27 00:23:11;;;;;;;18.50;4.93;;;25.90;63.60;;;;;;6262432;23;20026;-87
2023/07/27 00:25:36;;;;;;;18.65;4.50;;;25.90;63.70;;;;;;6260897;23;20000;-88
2023/07/27 00:28:02;;;;;;;14.65;4.30;;;25.90;63.60;;;;;;6255411;23;20338;-86
2023/07/27 00:30:28;;;;;;;14.80;3.95;;;25.90;63.40;;;;;;6227032;23;20004;-90
2023/07/27 00:32:53;;;;;;;14.82;4.60;;;25.90;63.60;;;;;;6254230;23;20092;-88
2023/07/27 00:35:19;;;;;;;13.93;3.80;;;25.90;63.70;;;;;;6263309;23;20014;-86
2023/07/27 00:37:45;;;;;;;18.38;4.40;;;25.90;63.70;;;;;;6266909;23;20038;-87
2023/07/27 00:40:11;;;;;;;18.05;4.03;;;25.90;64.00;;;;;;6261016;23;20046;-87
2023/07/27 00:42:36;;;;;;;16.23;4.57;;;25.80;64.00;;;;;;6252804;23;20022;-85
2023/07/27 00:45:02;;;;;;;23.08;4.55;;;25.80;64.00;;;;;;6260317;23;20004;-87
2023/07/27 00:47:28;;;;;;;17.08;4.10;;;25.70;64.40;;;;;;6258872;23;20020;-87
2023/07/27 00:49:54;;;;;;;14.73;4.43;;;25.70;64.50;;;;;;6248091;23;20000;-87
2023/07/27 00:52:20;;;;;;;20.15;4.38;;;25.60;64.70;;;;;;6248620;23;20055;-87
2023/07/27 00:54:45;;;;;;;14.85;3.78;;;25.60;64.70;;;;;;6250492;23;20058;-87
2023/07/27 00:57:11;;;;;;;13.85;3.75;;;25.60;64.50;;;;;;6256021;23;20004;-88
2023/07/27 00:59:39;;;;;;;11.68;3.80;;;25.50;64.50;;;;;;6259269;23;20085;-87
2023/07/27 01:02:05;;;;;;;13.00;3.65;;;25.60;64.50;;;;;;6254525;23;20004;-87
2023/07/27 01:04:31;;;;;;;17.20;4.28;;;25.60;64.60;;;;;;6220556;23;20334;-89
2023/07/27 01:06:57;;;;;;;14.73;3.45;;;25.70;64.50;;;;;;6233141;23;20013;-86
2023/07/27 01:09:22;;;;;;;11.55;3.60;;;25.70;64.30;;;;;;6232212;23;19996;-90
2023/07/27 01:11:53;;;;;;;13.40;4.13;;;25.70;64.30;;;;;;6233720;22;20001;-87
2023/07/27 01:14:37;;;;;;;20.73;4.53;;;25.70;64.40;;;;;;6243254;23;20008;-89
2023/07/27 01:17:26;;;;;;;13.32;3.70;;;25.70;64.50;;;;;;6272229;22;20018;-89
2023/07/27 01:20:09;;;;;;;12.90;3.83;;;25.70;64.30;;;;;;6263389;22;20088;-90
2023/07/27 01:22:41;;;;;;;16.95;3.72;;;25.60;64.20;;;;;;6227773;23;20015;-91
2023/07/27 01:25:23;;;;;;;10.93;3.50;;;25.50;64.30;;;;;;6256555;23;20425;-89
2023/07/27 01:28:11;;;;;;;17.52;3.85;;;25.50;64.30;;;;;;6261103;23;20022;-87
2023/07/27 01:30:45;;;;;;;16.38;3.80;;;25.30;64.20;;;;;;6255570;23;20003;-88
2023/07/27 01:33:14;;;;;;;11.82;3.75;;;25.20;64.80;;;;;;6255518;23;20058;-88
2023/07/27 01:35:53;;;;;;;11.23;3.97;;;25.20;64.50;;;;;;6261536;23;20066;-88
2023/07/27 01:38:20;;;;;;;11.93;3.50;;;25.10;64.60;;;;;;6272354;22;20005;-88
2023/07/27 01:40:46;;;;;;;13.43;3.75;;;25.00;64.80;;;;;;6262640;23;20032;-86
2023/07/27 01:43:13;;;;;;;10.68;3.33;;;25.10;64.80;;;;;;6250664;23;20004;-87
2023/07/27 01:45:40;;;;;;;10.48;3.60;;;25.20;64.80;;;;;;6249636;23;20004;-87
2023/07/27 01:48:08;;;;;;;12.48;3.60;;;25.10;64.70;;;;;;6250007;23;20315;-87
2023/07/27 01:50:35;;;;;;;13.05;3.67;;;25.10;64.60;;;;;;6249879;23;20000;-88
2023/07/27 01:53:03;;;;;;;14.95;4.00;;;25.20;64.60;;;;;;6259613;23;20060;-88
2023/07/27 01:55:29;;;;;;;11.55;3.35;;;25.10;64.90;;;;;;6255300;23;20060;-87
2023/07/27 01:57:59;;;;;;;13.07;4.00;;;25.10;64.50;;;;;;6232714;23;20014;-86
2023/07/27 02:00:27;;;;;;;12.63;3.92;;;25.20;64.60;;;;;;6256934;23;20406;-86
2023/07/27 02:02:53;;;;;;;16.05;4.30;;;25.20;64.40;;;;;;6267511;22;20050;-87
2023/07/27 02:05:21;;;;;;;11.23;3.30;;;25.20;64.40;;;;;;6251193;23;19996;-89
2023/07/27 02:07:47;;;;;;;11.68;3.83;;;25.20;64.50;;;;;;6253993;23;20012;-89
2023/07/27 02:10:16;;;;;;;13.75;3.55;;;25.20;64.60;;;;;;6259304;23;19997;-88
2023/07/27 02:12:47;;;;;;;11.85;3.95;;;25.10;64.70;;;;;;6254511;23;20004;-89
2023/07/27 02:15:21;;;;;;;12.18;3.65;;;25.10;64.90;;;;;;6252150;23;20113;-90
2023/07/27 02:18:00;;;;;;;13.52;4.32;;;25.10;64.90;;;;;;6259584;23;20000;-87
2023/07/27 02:20:33;;;;;;;13.23;3.45;;;25.00;64.80;;;;;;6266189;23;20055;-90
2023/07/27 02:23:00;;;;;;;17.65;4.32;;;25.00;65.00;;;;;;6252737;23;20079;-89
2023/07/27 02:25:26;;;;;;;12.32;3.70;;;25.00;65.00;;;;;;6264439;23;19996;-86
2023/07/27 02:27:52;;;;;;;14.80;3.78;;;25.00;65.00;;;;;;6269586;23;20020;-88
2023/07/27 02:30:17;;;;;;;13.40;3.90;;;24.90;64.90;;;;;;6267414;23;20000;-88
2023/07/27 02:32:43;;;;;;;12.45;3.88;;;24.90;64.90;;;;;;6258350;23;20042;-88
2023/07/27 02:35:09;;;;;;;10.75;3.65;;;24.90;65.20;;;;;;6250479;23;20042;-90
2023/07/27 02:37:35;;;;;;;14.35;3.83;;;24.80;65.40;;;;;;6224605;23;20062;-90
2023/07/27 02:40:00;;;;;;;12.38;3.70;;;24.70;65.50;;;;;;6250765;23;20004;-88
2023/07/27 02:42:26;;;;;;;11.02;4.00;;;24.80;65.50;;;;;;6252178;23;20000;-89
2023/07/27 02:44:52;;;;;;;11.48;3.33;;;24.70;65.60;;;;;;6257752;23;19996;-90
2023/07/27 02:47:17;;;;;;;15.68;4.22;;;24.80;65.40;;;;;;6270375;22;20031;-89
2023/07/27 02:49:43;;;;;;;11.05;3.35;;;24.90;65.50;;;;;;6273689;22;20015;-87
2023/07/27 02:52:09;;;;;;;11.18;3.40;;;24.90;65.40;;;;;;6228215;23;20008;-90
2023/07/27 02:54:34;;;;;;;14.80;3.85;;;24.90;65.40;;;;;;6235619;23;20028;-87
2023/07/27 02:57:00;;;;;;;12.70;3.67;;;24.90;65.30;;;;;;6259253;23;20035;-88
2023/07/27 02:59:26;;;;;;;14.75;3.90;;;24.80;65.30;;;;;;6233173;23;20015;-89
2023/07/27 03:01:51;;;;;;;12.85;3.40;;;24.90;65.30;;;;;;6251976;23;20007;-86
2023/07/27 03:04:17;;;;;;;15.15;3.90;;;24.80;65.10;;;;;;6250118;23;20004;-91
2023/07/27 03:06:43;;;;;;;12.38;3.58;;;24.70;65.10;;;;;;6250390;23;20012;-89
2023/07/27 03:09:09;;;;;;;14.40;4.00;;;24.70;65.40;;;;;;6266003;23;20003;-88
2023/07/27 03:11:37;;;;;;;9.60;3.70;;;24.70;65.40;;;;;;6262465;23;20295;-90
2023/07/27 03:14:03;;;;;;;13.27;3.53;;;24.60;65.60;;;;;;6259722;23;19996;-88
2023/07/27 03:16:29;;;;;;;13.43;4.00;;;24.60;65.50;;;;;;6267378;23;20007;-90
2023/07/27 03:18:56;;;;;;;12.70;3.92;;;24.50;65.50;;;;;;6255500;23;20000;-90
2023/07/27 03:21:21;;;;;;;15.00;3.40;;;24.50;65.70;;;;;;6231366;23;20000;-90
2023/07/27 03:23:48;;;;;;;11.27;3.13;;;24.60;65.50;;;;;;6230411;23;20015;-90
2023/07/27 03:26:15;;;;;;;14.63;3.67;;;24.50;65.50;;;;;;6237322;23;20008;-87
2023/07/27 03:28:41;;;;;;;10.50;3.33;;;24.50;65.50;;;;;;6269252;22;20024;-87
2023/07/27 03:31:18;;;;;;;14.13;3.58;;;24.50;65.50;;;;;;6271662;22;20004;-87
2023/07/27 03:33:44;;;;;;;12.10;3.45;;;24.50;65.20;;;;;;6242355;23;20035;-88
2023/07/27 03:36:09;;;;;;;11.95;3.28;;;24.40;65.40;;;;;;6264999;22;20004;-88
2023/07/27 03:38:35;;;;;;;9.18;2.88;;;24.40;65.70;;;;;;6271502;22;20000;-89
2023/07/27 03:41:01;;;;;;;12.05;3.45;;;24.30;65.90;;;;;;6267247;23;20011;-90
2023/07/27 03:43:27;;;;;;;15.32;3.83;;;24.30;65.80;;;;;;6243481;23;20004;-88
2023/07/27 03:45:53;;;;;;;11.20;3.08;;;24.30;66.20;;;;;;6267379;23;20123;-88
2023/07/27 03:48:19;;;;;;;7.85;3.00;;;24.30;66.30;;;;;;6267630;23;20023;-87
2023/07/27 03:50:45;;;;;;;10.95;3.40;;;24.30;66.30;;;;;;6258971;23;20048;-88
2023/07/27 03:53:11;;;;;;;12.23;3.25;;;24.20;66.40;;;;;;6252408;23;20060;-89
2023/07/27 03:55:37;;;;;;;11.25;3.45;;;24.10;66.70;;;;;;6249160;23;20004;-88
2023/07/27 03:58:03;;;;;;;8.95;2.90;;;24.00;66.80;;;;;;6249596;23;20023;-89
2023/07/27 04:00:28;;;;;;;11.05;3.17;;;23.90;66.90;;;;;;6250338;23;20374;-91
2023/07/27 04:02:54;;;;;;;12.02;3.17;;;23.90;67.20;;;;;;6250425;23;20349;-89
2023/07/27 04:05:20;;;;;;;10.88;3.05;;;24.00;67.40;;;;;;6251541;23;19996;-89
2023/07/27 04:07:49;;;;;;;12.90;3.53;;;24.00;67.10;;;;;;6228517;23;20017;-90
2023/07/27 04:10:16;;;;;;;12.65;3.60;;;24.00;67.40;;;;;;6261984;22;19996;-90
2023/07/27 04:12:41;;;;;;;14.88;3.63;;;24.00;67.30;;;;;;6273637;22;19989;-90
2023/07/27 04:15:08;;;;;;;10.38;3.20;;;24.10;67.40;;;;;;6272464;22;19998;-88
2023/07/27 04:17:33;;;;;;;10.45;3.20;;;24.10;66.70;;;;;;6272925;22;20031;-89
2023/07/27 04:19:59;;;;;;;13.73;3.70;;;24.20;67.20;;;;;;6271285;22;20008;-90
2023/07/27 04:22:25;;;;;;;11.50;3.13;;;24.10;66.90;;;;;;6269514;23;19996;-91
2023/07/27 04:24:50;;;;;;;11.05;3.58;;;24.20;67.00;;;;;;6262403;23;20047;-90
2023/07/27 04:27:16;;;;;;;16.15;3.60;;;24.20;67.40;;;;;;6257654;23;20008;-91
2023/07/27 04:29:42;;;;;;;11.38;3.25;;;24.20;66.90;;;;;;6267096;23;20002;-92
2023/07/27 04:32:08;;;;;;;12.20;2.95;;;24.20;66.90;;;;;;6261519;23;20004;-91
2023/07/27 04:34:34;;;;;;;14.07;3.55;;;24.20;66.80;;;;;;6271770;23;20004;-90
2023/07/27 04:37:00;;;;;;;9.98;3.15;;;24.20;66.60;;;;;;6262660;23;20003;-84
2023/07/27 04:39:25;;;;;;;14.10;3.78;;;24.20;66.90;;;;;;6258599;23;20000;-92
2023/07/27 04:41:51;;;;;;;15.20;3.63;;;24.20;66.70;;;;;;6260612;23;20326;-91
2023/07/27 04:44:17;;;;;;;14.10;3.53;;;24.10;66.70;;;;;;6267859;23;20004;-92
2023/07/27 04:46:43;;;;;;;9.50;3.30;;;24.10;66.70;;;;;;6261677;23;20004;-93
2023/07/27 04:49:08;;;;;;;15.43;3.63;;;24.10;67.00;;;;;;6266439;23;20007;-92
2023/07/27 04:51:34;;;;;;;13.52;3.30;;;24.10;66.80;;;;;;6267595;23;20016;-90
2023/07/27 04:54:01;;;;;;;15.13;3.28;;;24.10;66.80;;;;;;6269706;23;20007;-92
2023/07/27 04:56:26;;;;;;;16.50;3.33;;;24.10;66.90;;;;;;6268619;22;20098;-89
2023/07/27 04:58:52;;;;;;;17.95;3.90;;;24.10;66.80;;;;;;6258977;23;20000;-91
2023/07/27 05:01:18;;;;;;;11.75;3.85;;;24.10;66.90;;;;;;6258875;23;20004;-88
2023/07/27 05:03:43;;;;;;;15.07;3.58;;;24.00;67.00;;;;;;6264113;23;20023;-92
2023/07/27 05:06:09;;;;;;;7.72;2.78;;;23.90;67.20;;;;;;6268872;23;20004;-91
2023/07/27 05:08:35;;;;;;;7.82;3.17;;;24.00;67.20;;;;;;6270661;22;20070;-91
2023/07/27 05:11:03;;;;;;;12.15;3.75;;;24.10;67.10;;;;;;6272780;22;20011;-90
2023/07/27 05:13:29;;;;;;;8.70;3.55;;;24.20;67.10;;;;;;6272095;22;20003;-90
2023/07/27 05:15:54;;;;;;;8.32;3.30;;;24.30;66.90;;;;;;6268529;23;20008;-90
2023/07/27 05:18:20;;;;;;;9.55;3.53;;;24.30;66.80;;;;;;6271220;22;20027;-92
2023/07/27 05:20:46;;;;;;;15.10;3.80;;;24.40;66.70;;;;;;6271934;22;20012;-92
2023/07/27 05:23:11;;;;;;;11.13;3.00;;;24.50;66.40;;;;;;6268034;23;20015;-91
2023/07/27 05:25:37;;;;;;;10.93;3.75;;;24.70;66.40;;;;;;6269832;22;19992;-91
2023/07/27 05:28:03;;;;;;;10.60;3.88;;;25.00;65.40;;;;;;6267293;23;20012;-91
2023/07/27 05:30:29;;;;;;;9.63;2.80;;;25.30;64.70;;;;;;6270816;23;20007;-91
2023/07/27 05:32:54;;;;;;;12.40;3.53;;;25.70;64.20;;;;;;6270834;23;20027;-93
2023/07/27 05:35:20;;;;;;;20.90;3.95;;;26.00;63.90;;;;;;6237952;23;20008;-88
2023/07/27 05:37:46;;;;;;;14.88;3.67;;;26.30;62.90;;;;;;6228740;23;20008;-78
2023/07/27 05:40:15;;;;;;;12.88;3.80;;;26.40;62.30;;;;;;6247907;23;20100;-84
2023/07/27 05:42:42;;;;;;;13.75;4.03;;;26.70;62.00;;;;;;6245358;23;20008;-78
2023/07/27 05:45:09;;;;;;;13.65;3.58;;;27.00;61.50;;;;;;6246581;23;19996;-80
2023/07/27 05:47:34;;;;;;;12.82;3.47;;;27.20;60.10;;;;;;6250239;23;20012;-79
2023/07/27 05:50:00;;;;;;;12.95;4.25;;;27.20;59.80;;;;;;6246218;23;19996;-79
2023/07/27 05:52:26;;;;;;;16.15;4.20;;;27.20;59.70;;;;;;6244786;23;20016;-80
2023/07/27 05:54:52;;;;;;;13.70;3.40;;;27.50;59.30;;;;;;6244747;23;20338;-79
2023/07/27 05:57:18;;;;;;;13.52;3.53;;;28.00;58.60;;;;;;6244694;23;20007;-77
2023/07/27 05:59:44;;;;;;;14.57;3.90;;;28.30;57.30;;;;;;6244501;23;20015;-76
